Time;durP1;ratioP1;P1;durP2;ratioP2;P2;SDS_P1;SDS_P2;PMS_P1;PMS_P2;Temp;Humidity;BMP_temperature;BMP_pressure;BME280_temperature;BME280_humidity;BME280_pressure;Samples;Min_cycle;Max_cycle;Signal;HPM_P1;HPM_P2
2020/12/16 00:01:09;;;;;;;56.13;29.10;;;;;;;0.39;94.21;98383.81;4841408;29;20506;-71
2020/12/16 00:03:35;;;;;;;63.80;31.40;;;;;;;0.37;94.65;98387.31;4841669;29;20099;-71
2020/12/16 00:06:02;;;;;;;57.67;29.52;;;;;;;0.38;94.43;98387.28;4841226;29;20045;-71
2020/12/16 00:08:29;;;;;;;54.15;29.02;;;;;;;0.60;93.13;98390.13;4827643;29;20069;-71
2020/12/16 00:10:54;;;;;;;49.40;27.92;;;;;;;0.42;94.06;98383.75;4822687;29;20546;-71
2020/12/16 00:13:20;;;;;;;50.47;26.00;;;;;;;0.69;92.29;98383.88;4823547;29;20130;-71
2020/12/16 00:15:46;;;;;;;47.20;25.83;;;;;;;0.61;92.03;98378.94;4823153;29;20053;-71
2020/12/16 00:18:12;;;;;;;43.83;25.33;;;;;;;0.64;91.31;98380.59;4823457;29;20514;-71
2020/12/16 00:20:38;;;;;;;47.72;26.52;;;;;;;0.43;93.58;98393.16;4823126;29;20550;-78
2020/12/16 00:23:04;;;;;;;48.80;27.38;;;;;;;0.58;92.65;98389.34;4823280;29;20057;-71
2020/12/16 00:25:29;;;;;;;49.22;27.27;;;;;;;0.42;93.96;98398.34;4823253;29;20400;-71
2020/12/16 00:27:55;;;;;;;51.42;26.13;;;;;;;0.50;93.52;98393.84;4822976;29;20057;-71
2020/12/16 00:30:21;;;;;;;47.33;25.23;;;;;;;0.62;92.18;98405.56;4823664;29;20046;-72
2020/12/16 00:32:47;;;;;;;46.22;24.35;;;;;;;0.73;91.55;98397.53;4822949;29;20510;-72
2020/12/16 00:35:12;;;;;;;42.92;23.67;;;;;;;0.63;91.31;98405.53;4823218;29;20051;-72
2020/12/16 00:37:40;;;;;;;46.28;23.98;;;;;;;0.82;90.75;98394.72;4829974;29;20134;-74
2020/12/16 00:40:08;;;;;;;42.00;23.83;;;;;;;0.67;90.83;98393.41;4840988;29;20102;-71
2020/12/16 00:42:34;;;;;;;44.17;24.13;;;;;;;0.53;91.83;98410.09;4841182;29;20046;-71
2020/12/16 00:45:00;;;;;;;43.00;23.52;;;;;;;0.69;91.61;98414.84;4840981;29;20136;-72
2020/12/16 00:47:26;;;;;;;39.75;22.90;;;;;;;0.62;91.44;98414.19;4841434;29;20411;-71
2020/12/16 00:49:52;;;;;;;38.65;22.67;;;;;;;0.68;91.18;98410.56;4840536;29;20062;-72
2020/12/16 00:52:17;;;;;;;42.20;23.30;;;;;;;0.60;92.47;98403.03;4841395;29;20058;-71
2020/12/16 00:54:44;;;;;;;41.45;23.13;;;;;;;0.49;92.61;98413.63;4840826;29;20046;-78
2020/12/16 00:57:10;;;;;;;39.33;22.30;;;;;;;0.65;91.22;98405.50;4841425;29;20054;-71
2020/12/16 00:59:36;;;;;;;35.25;20.88;;;;;;;0.56;91.35;98406.59;4828584;29;20107;-72
2020/12/16 01:02:04;;;;;;;36.88;22.40;;;;;;;0.66;91.29;98404.59;4822476;29;20301;-71
2020/12/16 01:04:30;;;;;;;38.13;22.30;;;;;;;0.54;91.88;98403.19;4806523;29;20050;-71
2020/12/16 01:06:55;;;;;;;40.13;22.45;;;;;;;0.63;91.43;98404.69;4806078;29;20057;-71
2020/12/16 01:09:21;;;;;;;39.13;22.50;;;;;;;0.42;92.48;98408.66;4823105;29;20054;-72
2020/12/16 01:11:47;;;;;;;39.53;23.23;;;;;;;0.48;92.53;98404.22;4824345;29;20042;-71
2020/12/16 01:14:13;;;;;;;40.05;22.70;;;;;;;0.41;92.94;98405.25;4826347;29;20050;-71
2020/12/16 01:16:39;;;;;;;38.78;23.35;;;;;;;0.31;93.57;98406.34;4826335;29;20115;-71
2020/12/16 01:19:06;;;;;;;37.65;22.98;;;;;;;0.33;93.21;98412.34;4827025;29;20340;-72
2020/12/16 01:21:36;;;;;;;37.72;22.10;;;;;;;0.55;92.02;98415.22;4844319;29;20152;-71
2020/12/16 01:24:03;;;;;;;41.58;22.85;;;;;;;0.35;93.34;98413.13;4843912;29;20120;-71
2020/12/16 01:26:36;;;;;;;36.72;22.10;;;;;;;0.45;92.06;98418.91;4844233;29;20415;-71
2020/12/16 01:29:02;;;;;;;36.72;21.92;;;;;;;0.19;93.61;98428.16;4843686;29;20054;-70
2020/12/16 01:31:36;;;;;;;43.63;23.98;;;;;;;0.29;93.56;98418.44;4844092;29;20140;-70
2020/12/16 01:34:01;;;;;;;37.17;21.92;;;;;;;0.32;92.92;98415.78;4843923;29;20544;-70
2020/12/16 01:36:29;;;;;;;39.72;22.45;;;;;;;0.11;94.82;98427.47;4843992;29;20061;-71
2020/12/16 01:38:56;;;;;;;40.40;22.88;;;;;;;0.07;94.64;98423.28;4843472;29;20050;-71
2020/12/16 01:41:21;;;;;;;38.40;21.83;;;;;;;0.44;92.43;98420.66;4843892;29;20056;-72
2020/12/16 01:43:47;;;;;;;32.90;19.85;;;;;;;0.34;92.32;98432.06;4843879;29;20046;-73
2020/12/16 01:46:13;;;;;;;35.80;20.88;;;;;;;0.37;92.55;98431.16;4842710;29;20114;-70
2020/12/16 01:48:38;;;;;;;33.80;18.55;;;;;;;0.31;92.38;98427.84;4843809;29;20057;-70
2020/12/16 01:51:04;;;;;;;29.98;18.23;;;;;;;0.27;93.22;98435.69;4826855;29;20094;-71
2020/12/16 01:53:32;;;;;;;30.35;18.90;;;;;;;0.39;92.40;98429.38;4825364;29;20046;-70
2020/12/16 01:55:58;;;;;;;31.88;18.33;;;;;;;0.43;91.85;98434.41;4824911;29;20517;-71
2020/12/16 01:58:28;;;;;;;29.60;18.27;;;;;;;0.60;91.11;98434.00;4825437;29;20074;-71
2020/12/16 02:00:54;;;;;;;29.30;17.63;;;;;;;0.57;91.26;98444.38;4812488;29;20055;-71
2020/12/16 02:03:22;;;;;;;29.63;18.40;;;;;;;0.62;90.85;98446.84;4833745;29;20517;-71
2020/12/16 02:05:51;;;;;;;30.08;17.88;;;;;;;0.50;91.84;98446.28;4837118;29;20050;-78
2020/12/16 02:08:20;;;;;;;26.15;17.15;;;;;;;0.44;92.09;98458.50;4843435;29;20486;-70
2020/12/16 02:10:46;;;;;;;28.48;17.33;;;;;;;0.48;91.78;98439.47;4842767;29;20502;-71
2020/12/16 02:13:13;;;;;;;29.15;18.00;;;;;;;0.48;91.94;98435.16;4843256;29;20054;-70
2020/12/16 02:15:38;;;;;;;31.15;18.17;;;;;;;0.56;91.18;98441.84;4843576;29;20085;-70
2020/12/16 02:18:04;;;;;;;29.63;18.30;;;;;;;0.46;92.38;98436.91;4842983;29;20069;-72
2020/12/16 02:20:30;;;;;;;28.90;17.33;;;;;;;0.50;91.70;98437.72;4843266;29;20083;-71
2020/12/16 02:22:57;;;;;;;31.23;18.85;;;;;;;0.52;91.93;98446.25;4842830;29;20054;-70
2020/12/16 02:25:23;;;;;;;30.33;18.52;;;;;;;0.45;92.35;98445.56;4843199;29;20050;-71
2020/12/16 02:27:49;;;;;;;31.05;18.98;;;;;;;0.60;90.79;98452.03;4842878;29;20068;-80
2020/12/16 02:30:15;;;;;;;28.42;17.30;;;;;;;0.63;90.68;98444.22;4841966;29;20046;-70
2020/12/16 02:32:41;;;;;;;27.95;17.02;;;;;;;0.55;91.27;98451.31;4843308;29;20629;-70
2020/12/16 02:35:08;;;;;;;29.83;17.67;;;;;;;0.59;90.49;98452.94;4842917;29;20053;-70
2020/12/16 02:37:35;;;;;;;29.77;16.77;;;;;;;0.65;89.98;98449.34;4843180;29;20065;-71
2020/12/16 02:40:01;;;;;;;31.52;17.52;;;;;;;0.59;91.13;98458.13;4826309;29;20110;-71
2020/12/16 02:42:28;;;;;;;26.27;15.63;;;;;;;0.55;90.48;98451.31;4843185;29;20046;-71
2020/12/16 02:44:57;;;;;;;24.65;15.63;;;;;;;0.53;91.33;98443.63;4842652;29;20046;-72
2020/12/16 02:47:24;;;;;;;26.58;16.00;;;;;;;0.51;90.92;98460.00;4842760;29;20083;-70
2020/12/16 02:49:50;;;;;;;28.70;16.88;;;;;;;0.43;91.76;98459.38;4828827;29;20046;-79
2020/12/16 02:52:16;;;;;;;24.30;14.93;;;;;;;0.45;91.85;98449.84;4824350;29;20054;-71
2020/12/16 02:54:41;;;;;;;27.38;16.02;;;;;;;0.58;90.67;98456.41;4837346;29;20109;-72
2020/12/16 02:57:07;;;;;;;21.88;14.38;;;;;;;0.79;88.95;98451.56;4842455;29;20050;-71
2020/12/16 02:59:33;;;;;;;23.00;14.45;;;;;;;0.88;88.69;98456.50;4842883;29;20054;-71
2020/12/16 03:01:59;;;;;;;23.08;13.90;;;;;;;0.66;89.15;98457.06;4842037;29;20551;-71
2020/12/16 03:04:25;;;;;;;25.88;15.07;;;;;;;0.76;89.13;98464.56;4834876;29;20152;-71
2020/12/16 03:06:53;;;;;;;23.02;14.82;;;;;;;0.62;89.20;98452.88;4824054;29;20053;-79
2020/12/16 03:09:20;;;;;;;25.75;15.10;;;;;;;0.64;89.85;98453.66;4824259;29;20491;-72
2020/12/16 03:11:50;;;;;;;24.25;15.20;;;;;;;0.52;90.70;98453.97;4824489;29;20050;-72
2020/12/16 03:14:16;;;;;;;25.80;15.82;;;;;;;0.59;90.84;98457.25;4823883;29;20456;-72
2020/12/16 03:16:41;;;;;;;23.17;14.60;;;;;;;0.54;90.52;98457.34;4824193;29;20054;-72
2020/12/16 03:19:07;;;;;;;23.58;15.00;;;;;;;0.76;89.07;98464.56;4823820;29;20042;-71
2020/12/16 03:21:33;;;;;;;23.95;15.57;;;;;;;0.78;89.67;98457.66;4824139;29;20054;-70
2020/12/16 03:23:59;;;;;;;24.05;14.68;;;;;;;0.65;89.45;98452.78;4830084;29;20137;-71
2020/12/16 03:26:25;;;;;;;21.95;14.20;;;;;;;0.61;90.25;98458.91;4842563;29;20050;-71
2020/12/16 03:28:51;;;;;;;24.27;14.15;;;;;;;0.68;89.23;98470.78;4842217;29;20060;-70
2020/12/16 03:31:16;;;;;;;19.95;12.93;;;;;;;0.75;89.11;98468.03;4842395;29;20058;-70
2020/12/16 03:33:46;;;;;;;19.35;12.20;;;;;;;0.77;88.74;98471.41;4842282;29;20061;-70
2020/12/16 03:36:17;;;;;;;20.02;13.27;;;;;;;0.91;87.49;98463.31;4841637;29;20057;-71
2020/12/16 03:38:43;;;;;;;19.48;12.38;;;;;;;0.77;89.14;98464.50;4842085;29;20491;-71
2020/12/16 03:41:10;;;;;;;20.88;13.77;;;;;;;0.76;90.32;98467.13;4841633;29;20050;-70
2020/12/16 03:43:36;;;;;;;19.73;12.63;;;;;;;0.66;88.79;98462.22;4836754;29;20072;-71
2020/12/16 03:46:07;;;;;;;22.45;13.50;;;;;;;0.92;87.72;98463.28;4823397;29;20138;-71
2020/12/16 03:48:33;;;;;;;23.10;13.35;;;;;;;0.83;87.76;98468.69;4823726;29;20411;-70
2020/12/16 03:50:59;;;;;;;19.95;12.85;;;;;;;1.05;86.60;98464.66;4823306;29;20055;-71
2020/12/16 03:53:24;;;;;;;17.27;11.80;;;;;;;1.15;86.04;98467.00;4823573;29;20050;-70
2020/12/16 03:55:53;;;;;;;18.58;12.32;;;;;;;0.91;88.09;98469.31;4823468;29;20056;-70
2020/12/16 03:58:20;;;;;;;20.33;12.93;;;;;;;0.88;87.20;98475.44;4823308;29;20053;-70
2020/12/16 04:00:45;;;;;;;20.30;12.27;;;;;;;0.87;86.45;98478.06;4823386;29;20098;-70
2020/12/16 04:03:14;;;;;;;21.77;13.45;;;;;;;1.14;85.79;98479.03;4811559;29;20053;-71
2020/12/16 04:05:40;;;;;;;20.77;13.27;;;;;;;1.02;86.52;98477.66;4841315;29;20050;-70
2020/12/16 04:08:05;;;;;;;22.10;13.90;;;;;;;0.93;87.30;98480.47;4840908;29;20053;-71
2020/12/16 04:10:31;;;;;;;19.63;12.75;;;;;;;0.84;87.14;98486.72;4841693;29;20411;-70
2020/12/16 04:12:57;;;;;;;20.45;11.82;;;;;;;0.89;86.95;98491.75;4841343;29;20046;-79
2020/12/16 04:15:22;;;;;;;23.00;13.05;;;;;;;1.09;87.06;98483.47;4841588;29;20542;-71
2020/12/16 04:17:48;;;;;;;19.25;11.85;;;;;;;0.87;87.20;98478.88;4841651;29;20536;-71
2020/12/16 04:20:14;;;;;;;18.23;11.63;;;;;;;1.14;85.80;98478.19;4840763;29;20053;-71
2020/12/16 04:22:39;;;;;;;20.58;12.02;;;;;;;1.04;85.49;98481.03;4824387;29;20054;-70
2020/12/16 04:25:05;;;;;;;21.52;12.65;;;;;;;1.33;85.13;98479.41;4840857;29;20110;-70
2020/12/16 04:27:31;;;;;;;20.95;11.80;;;;;;;1.13;85.44;98476.50;4841584;29;20046;-69
2020/12/16 04:29:57;;;;;;;17.77;11.07;;;;;;;1.02;86.20;98466.44;4825151;29;20054;-78
2020/12/16 04:32:23;;;;;;;15.73;10.45;;;;;;;0.97;86.28;98474.31;4841313;29;20122;-70
2020/12/16 04:34:48;;;;;;;16.98;10.52;;;;;;;1.23;84.72;98472.78;4841684;29;20477;-69
2020/12/16 04:37:15;;;;;;;14.68;10.02;;;;;;;1.10;85.85;98480.03;4840818;29;20438;-70
2020/12/16 04:39:40;;;;;;;16.50;10.27;;;;;;;1.10;85.65;98477.44;4840401;29;20053;-73
2020/12/16 04:42:06;;;;;;;15.95;9.55;;;;;;;0.86;86.03;98481.50;4840749;29;20050;-70
2020/12/16 04:44:32;;;;;;;16.00;9.98;;;;;;;0.86;86.62;98481.50;4841239;29;20490;-70
2020/12/16 04:46:59;;;;;;;18.13;10.38;;;;;;;0.96;86.43;98488.13;4843348;29;20064;-78
2020/12/16 04:49:25;;;;;;;14.93;9.40;;;;;;;1.10;85.47;98492.94;4845249;29;20459;-71
2020/12/16 04:51:51;;;;;;;14.57;9.52;;;;;;;0.92;86.43;98496.84;4828509;29;20559;-71
2020/12/16 04:54:17;;;;;;;13.75;9.20;;;;;;;0.93;86.94;98503.69;4844668;29;20057;-70
2020/12/16 04:56:44;;;;;;;16.85;10.18;;;;;;;1.07;85.52;98504.19;4845099;29;20407;-70
2020/12/16 04:59:09;;;;;;;15.55;9.70;;;;;;;0.99;86.34;98505.25;4844828;29;20061;-70
2020/12/16 05:01:41;;;;;;;18.70;10.60;;;;;;;0.88;86.94;98510.69;4845802;29;20050;-70
2020/12/16 05:04:08;;;;;;;19.20;10.77;;;;;;;0.79;86.92;98521.25;4844434;29;20057;-70
2020/12/16 05:06:35;;;;;;;18.33;11.40;;;;;;;0.82;87.59;98526.34;4844574;29;20137;-70
2020/12/16 05:09:04;;;;;;;19.52;11.63;;;;;;;0.68;88.47;98524.09;4844157;29;20483;-78
2020/12/16 05:11:34;;;;;;;17.60;11.35;;;;;;;0.85;86.99;98536.59;4844292;29;20053;-70
2020/12/16 05:14:11;;;;;;;17.77;11.45;;;;;;;0.84;87.28;98532.31;4844405;29;20065;-77
2020/12/16 05:17:05;;;;;;;17.23;11.15;;;;;;;0.71;87.11;98540.38;4844056;29;20049;-69
2020/12/16 05:19:33;;;;;;;19.70;12.40;;;;;;;0.80;87.78;98541.84;4844557;29;20079;-72
2020/12/16 05:22:14;;;;;;;19.83;11.77;;;;;;;0.83;87.15;98540.94;4844394;29;20050;-70
2020/12/16 05:24:40;;;;;;;16.77;11.25;;;;;;;0.75;87.90;98546.28;4844373;29;20053;-70
2020/12/16 05:27:13;;;;;;;20.30;12.23;;;;;;;0.64;87.64;98541.41;4843656;29;20054;-70
2020/12/16 05:29:40;;;;;;;18.88;11.43;;;;;;;0.48;88.53;98547.78;4844400;29;20056;-70
2020/12/16 05:32:28;;;;;;;19.30;12.57;;;;;;;0.42;89.42;98545.34;4842156;29;20058;-76
2020/12/16 05:34:58;;;;;;;18.67;12.20;;;;;;;0.30;90.37;98544.75;4838478;29;20054;-72
2020/12/16 05:37:38;;;;;;;20.83;12.35;;;;;;;0.43;89.07;98549.66;4843172;29;20056;-75
2020/12/16 05:40:07;;;;;;;19.83;12.50;;;;;;;0.58;88.52;98544.13;4842485;29;20106;-80
2020/12/16 05:42:33;;;;;;;20.70;12.10;;;;;;;0.39;90.07;98540.28;4844045;29;20087;-70
2020/12/16 05:45:10;;;;;;;19.95;12.50;;;;;;;0.38;89.73;98536.84;4843902;29;20050;-70
2020/12/16 05:47:39;;;;;;;20.60;12.77;;;;;;;0.23;90.87;98543.19;4843818;29;20106;-70
2020/12/16 05:50:17;;;;;;;21.70;12.93;;;;;;;0.37;90.85;98540.31;4827067;29;20118;-78
2020/12/16 05:52:44;;;;;;;23.02;12.93;;;;;;;0.51;88.62;98537.41;4843978;29;20045;-69
2020/12/16 05:55:10;;;;;;;23.27;13.02;;;;;;;0.38;89.55;98538.59;4843267;29;20424;-70
2020/12/16 05:57:36;;;;;;;22.67;12.82;;;;;;;0.17;90.87;98541.63;4843517;29;20133;-70
2020/12/16 06:00:10;;;;;;;22.33;12.82;;;;;;;0.70;88.04;98551.56;4843497;29;20061;-72
2020/12/16 06:02:41;;;;;;;22.55;13.07;;;;;;;0.64;87.34;98551.72;4843753;29;20057;-71
2020/12/16 06:05:13;;;;;;;24.02;12.80;;;;;;;0.64;88.50;98549.13;4843092;29;20053;-72
2020/12/16 06:07:40;;;;;;;20.40;12.52;;;;;;;0.45;89.17;98564.22;4843368;29;20046;-71
2020/12/16 06:10:07;;;;;;;23.50;11.98;;;;;;;0.31;89.51;98558.50;4843108;29;20384;-80
2020/12/16 06:12:40;;;;;;;23.38;13.77;;;;;;;0.16;90.83;98557.97;4843530;29;20094;-71
2020/12/16 06:15:14;;;;;;;20.73;13.00;;;;;;;0.08;91.84;98559.00;4843474;29;20061;-80
2020/12/16 06:17:42;;;;;;;22.83;13.40;;;;;;;0.15;90.61;98561.41;4843330;29;20125;-70
2020/12/16 06:20:14;;;;;;;22.15;13.15;;;;;;;0.10;91.37;98570.16;4843201;29;20053;-82
2020/12/16 06:22:42;;;;;;;21.45;11.88;;;;;;;0.11;91.90;98564.09;4827637;29;20042;-76
2020/12/16 06:25:09;;;;;;;21.10;12.30;;;;;;;0.27;90.39;98555.16;4842876;29;20054;-76
2020/12/16 06:27:41;;;;;;;24.40;12.98;;;;;;;0.27;90.77;98565.47;4843107;29;20046;-75
2020/12/16 06:30:12;;;;;;;20.80;12.52;;;;;;;0.28;90.29;98567.16;4842420;29;20042;-79
2020/12/16 06:32:42;;;;;;;21.45;12.18;;;;;;;0.22;90.38;98550.97;4843268;29;20110;-73
2020/12/16 06:35:16;;;;;;;24.15;13.77;;;;;;;-0.02;92.37;98548.94;4842988;29;20054;-80
2020/12/16 06:37:41;;;;;;;23.52;13.57;;;;;;;-0.07;93.41;98563.63;4843376;29;20054;-73
2020/12/16 06:40:07;;;;;;;24.77;13.98;;;;;;;0.02;92.26;98556.56;4834077;29;20098;-79
2020/12/16 06:42:33;;;;;;;26.33;13.55;;;;;;;0.11;92.73;98553.78;4826557;29;20058;-72
2020/12/16 06:45:16;;;;;;;26.58;13.23;;;;;;;-0.02;92.97;98554.06;4839791;29;20049;-71
2020/12/16 06:47:42;;;;;;;23.60;13.70;;;;;;;0.02;92.63;98565.16;4841776;29;20073;-72
2020/12/16 06:50:24;;;;;;;24.90;12.98;;;;;;;0.01;92.86;98562.63;4825662;29;20410;-78
2020/12/16 06:52:50;;;;;;;30.07;14.37;;;;;;;-0.10;94.17;98568.84;4841874;29;20406;-76
2020/12/16 06:55:16;;;;;;;24.13;13.07;;;;;;;-0.02;93.35;98571.25;4841298;29;20085;-74
2020/12/16 06:57:49;;;;;;;27.40;15.32;;;;;;;-0.28;95.93;98576.94;4842285;29;20085;-74
2020/12/16 07:00:21;;;;;;;33.05;16.52;;;;;;;-0.11;94.42;98579.19;4841043;29;20054;-74
2020/12/16 07:02:48;;;;;;;28.73;16.48;;;;;;;-0.19;95.38;98579.31;4842376;29;20046;-73
2020/12/16 07:05:37;;;;;;;32.50;17.20;;;;;;;0.08;93.01;98579.63;4840372;29;20448;-72
2020/12/16 07:08:04;;;;;;;29.30;15.63;;;;;;;0.45;90.72;98578.81;4842332;29;20046;-73
2020/12/16 07:10:47;;;;;;;33.83;16.42;;;;;;;0.24;92.21;98577.59;4840891;29;20050;-72
2020/12/16 07:13:24;;;;;;;32.38;16.45;;;;;;;0.16;92.59;98590.66;4840838;29;20383;-78
2020/12/16 07:16:10;;;;;;;29.30;15.55;;;;;;;0.17;92.69;98590.63;4841846;29;20054;-72
2020/12/16 07:18:39;;;;;;;32.65;16.50;;;;;;;0.52;90.57;98593.28;4841731;29;20061;-72
2020/12/16 07:21:07;;;;;;;28.35;15.30;;;;;;;0.40;90.84;98602.13;4841600;29;20614;-72
2020/12/16 07:23:39;;;;;;;30.00;14.88;;;;;;;0.80;88.53;98590.91;4840993;29;20049;-72
2020/12/16 07:26:05;;;;;;;30.23;15.65;;;;;;;0.72;88.58;98592.81;4841108;29;20054;-72
2020/12/16 07:28:36;;;;;;;27.38;15.05;;;;;;;0.56;89.36;98597.50;4824338;29;20057;-73
2020/12/16 07:31:06;;;;;;;34.72;16.63;;;;;;;0.40;91.12;98598.72;4841659;29;20062;-72
2020/12/16 07:33:33;;;;;;;33.00;17.08;;;;;;;0.40;91.24;98594.41;4840476;29;20042;-72
2020/12/16 07:36:00;;;;;;;29.65;15.48;;;;;;;0.65;89.74;98606.75;4841571;29;20444;-71
2020/12/16 07:38:27;;;;;;;29.98;15.65;;;;;;;0.66;89.63;98611.03;4841074;29;20082;-72
2020/12/16 07:40:56;;;;;;;29.33;15.75;;;;;;;0.51;90.53;98605.34;4825324;29;20418;-73
2020/12/16 07:43:23;;;;;;;30.45;16.58;;;;;;;0.58;90.43;98610.38;4841142;29;20472;-74
2020/12/16 07:46:02;;;;;;;30.25;16.92;;;;;;;1.05;87.45;98610.94;4841798;29;20050;-73
2020/12/16 07:48:28;;;;;;;37.10;17.50;;;;;;;1.00;87.63;98613.66;4840635;29;20407;-74
2020/12/16 07:51:07;;;;;;;34.33;18.23;;;;;;;1.34;85.20;98615.38;4825630;29;20060;-72
2020/12/16 07:53:43;;;;;;;34.85;18.35;;;;;;;1.40;86.53;98612.63;4840556;29;20098;-72
2020/12/16 07:56:09;;;;;;;34.13;17.85;;;;;;;1.21;86.22;98614.84;4841399;29;20136;-73
2020/12/16 07:58:35;;;;;;;29.58;16.05;;;;;;;1.52;84.48;98611.47;4840012;29;20100;-73
2020/12/16 08:01:20;;;;;;;30.58;16.65;;;;;;;1.54;83.53;98608.84;4841161;29;20087;-73
2020/12/16 08:03:46;;;;;;;26.98;15.45;;;;;;;1.60;83.38;98611.28;4841252;29;20042;-71
2020/12/16 08:06:13;;;;;;;27.27;14.98;;;;;;;1.60;82.91;98604.38;4840472;29;20064;-72
2020/12/16 08:08:56;;;;;;;25.67;14.30;;;;;;;1.95;82.36;98599.13;4840451;29;20118;-71
2020/12/16 08:11:25;;;;;;;32.40;15.50;;;;;;;2.36;80.46;98615.16;4840622;29;20518;-71
2020/12/16 08:13:52;;;;;;;25.88;13.57;;;;;;;2.23;79.34;98614.69;4840732;29;20050;-72
2020/12/16 08:16:18;;;;;;;28.13;14.50;;;;;;;2.54;80.52;98618.09;4840486;29;20058;-78
2020/12/16 08:18:48;;;;;;;29.25;15.55;;;;;;;2.56;78.46;98627.50;4840744;29;20046;-74
2020/12/16 08:21:22;;;;;;;25.08;13.30;;;;;;;2.56;77.51;98619.75;4840639;29;20517;-75
2020/12/16 08:23:49;;;;;;;31.88;15.60;;;;;;;2.45;78.53;98633.00;4840877;29;20050;-72
2020/12/16 08:26:16;;;;;;;29.67;15.88;;;;;;;2.29;79.48;98634.38;4840754;29;20062;-79
2020/12/16 08:28:42;;;;;;;29.40;14.48;;;;;;;2.34;79.41;98635.06;4840530;29;20050;-72
2020/12/16 08:31:09;;;;;;;27.33;14.77;;;;;;;2.82;78.06;98631.88;4840904;29;20057;-72
2020/12/16 08:33:37;;;;;;;26.65;14.20;;;;;;;3.01;76.15;98628.69;4840014;29;20290;-72
2020/12/16 08:36:09;;;;;;;28.08;14.95;;;;;;;3.52;74.56;98635.66;4841156;29;20062;-72
2020/12/16 08:38:41;;;;;;;27.52;14.57;;;;;;;3.52;73.79;98629.59;4840398;29;20144;-72
2020/12/16 08:41:09;;;;;;;25.38;12.63;;;;;;;3.46;73.88;98643.66;4841085;29;20058;-72
2020/12/16 08:43:42;;;;;;;29.00;14.95;;;;;;;3.08;75.66;98658.69;4839900;29;20050;-72
2020/12/16 08:46:19;;;;;;;24.70;13.13;;;;;;;3.16;75.71;98648.94;4840422;29;20061;-72
2020/12/16 08:48:52;;;;;;;28.25;13.82;;;;;;;3.21;75.64;98652.22;4840578;29;20137;-72
2020/12/16 08:51:18;;;;;;;27.38;13.80;;;;;;;3.50;73.62;98658.19;4840368;29;20527;-78
2020/12/16 08:53:50;;;;;;;25.10;14.52;;;;;;;3.56;74.11;98649.34;4840126;29;20070;-72
2020/12/16 08:56:20;;;;;;;27.08;14.57;;;;;;;3.82;72.90;98669.19;4841205;29;20049;-73
2020/12/16 08:58:58;;;;;;;27.58;15.48;;;;;;;3.53;74.98;98665.84;4840070;29;20547;-72
2020/12/16 09:01:25;;;;;;;28.95;14.98;;;;;;;3.32;75.62;98669.16;4839442;29;20082;-72
2020/12/16 09:03:52;;;;;;;31.08;15.73;;;;;;;3.09;76.40;98668.19;4840341;29;20050;-72
2020/12/16 09:06:17;;;;;;;32.58;16.10;;;;;;;3.44;75.32;98671.34;4839736;29;20498;-78
2020/12/16 09:08:43;;;;;;;30.38;15.90;;;;;;;3.43;74.14;98666.22;4839809;29;20109;-72
2020/12/16 09:11:09;;;;;;;29.08;15.93;;;;;;;3.23;74.81;98667.72;4840305;29;20046;-72
2020/12/16 09:13:35;;;;;;;28.85;15.32;;;;;;;3.32;74.71;98669.16;4839559;29;20179;-72
2020/12/16 09:16:01;;;;;;;30.98;15.85;;;;;;;3.25;74.47;98667.69;4840683;29;20487;-73
2020/12/16 09:18:29;;;;;;;35.13;16.45;;;;;;;3.37;74.50;98669.88;4823849;29;20153;-73
2020/12/16 09:20:55;;;;;;;32.97;16.35;;;;;;;3.35;75.27;98675.09;4840887;29;20574;-73
2020/12/16 09:23:28;;;;;;;27.13;15.07;;;;;;;3.14;74.50;98681.81;4841365;29;20054;-78
2020/12/16 09:25:55;;;;;;;29.95;16.15;;;;;;;3.18;74.68;98673.06;4840763;29;20042;-73
2020/12/16 09:28:32;;;;;;;31.30;17.15;;;;;;;3.14;74.93;98663.69;4840767;29;20053;-80
2020/12/16 09:31:13;;;;;;;37.40;18.17;;;;;;;3.40;75.57;98675.78;4841177;29;20050;-74
2020/12/16 09:33:39;;;;;;;31.52;16.77;;;;;;;3.41;75.18;98676.63;4843606;29;20125;-73
2020/12/16 09:36:05;;;;;;;36.22;16.75;;;;;;;3.47;75.07;98673.00;4844112;29;20542;-74
2020/12/16 09:38:31;;;;;;;33.25;16.60;;;;;;;4.18;73.29;98668.78;4843203;29;20144;-73
2020/12/16 09:40:59;;;;;;;34.78;17.90;;;;;;;4.60;70.89;98673.31;4827602;29;20133;-73
2020/12/16 09:43:39;;;;;;;33.08;17.35;;;;;;;4.61;70.67;98674.16;4843496;29;20046;-74
2020/12/16 09:46:16;;;;;;;30.65;16.63;;;;;;;4.84;69.76;98681.91;4844037;29;20474;-73
2020/12/16 09:48:43;;;;;;;37.00;18.17;;;;;;;4.37;71.47;98681.97;4843554;29;20053;-73
2020/12/16 09:51:27;;;;;;;32.10;17.30;;;;;;;4.11;72.14;98677.72;4843926;29;20058;-73
2020/12/16 09:53:55;;;;;;;33.65;17.30;;;;;;;4.12;72.79;98674.19;4844120;29;20415;-73
2020/12/16 09:56:25;;;;;;;29.75;17.27;;;;;;;4.38;70.75;98678.44;4843819;29;20050;-76
2020/12/16 09:58:52;;;;;;;37.88;19.38;;;;;;;4.23;71.75;98674.69;4844017;29;20064;-73
2020/12/16 10:01:18;;;;;;;32.08;18.17;;;;;;;4.38;71.85;98669.81;4843525;29;20057;-73
2020/12/16 10:03:47;;;;;;;33.78;19.02;;;;;;;4.01;71.01;98668.56;4843096;29;20042;-73
2020/12/16 10:06:13;;;;;;;39.58;19.00;;;;;;;3.75;73.60;98673.75;4843547;29;20042;-72
2020/12/16 10:08:40;;;;;;;35.53;19.40;;;;;;;3.78;72.59;98672.78;4843133;29;20054;-73
2020/12/16 10:11:15;;;;;;;39.33;19.75;;;;;;;3.56;73.14;98668.34;4843610;29;20136;-73
2020/12/16 10:13:43;;;;;;;36.17;20.15;;;;;;;3.93;71.23;98667.06;4842695;29;20050;-73
2020/12/16 10:16:10;;;;;;;35.80;19.30;;;;;;;3.68;73.82;98672.28;4843217;29;20487;-72
2020/12/16 10:18:37;;;;;;;33.53;18.92;;;;;;;3.94;72.52;98665.34;4843039;29;20110;-73
2020/12/16 10:21:04;;;;;;;40.00;20.52;;;;;;;3.81;72.08;98667.50;4827066;29;20053;-73
2020/12/16 10:23:31;;;;;;;36.95;19.50;;;;;;;4.02;72.26;98668.50;4842837;29;20050;-73
2020/12/16 10:25:56;;;;;;;33.72;18.83;;;;;;;3.90;72.31;98667.19;4843309;29;20148;-73
2020/12/16 10:28:22;;;;;;;37.63;19.02;;;;;;;3.67;72.26;98670.56;4827212;29;20061;-74
2020/12/16 10:30:49;;;;;;;35.92;19.45;;;;;;;3.35;76.02;98669.91;4842792;29;20058;-73
2020/12/16 10:33:16;;;;;;;35.05;19.45;;;;;;;3.62;73.09;98667.28;4843353;29;20054;-74
2020/12/16 10:35:42;;;;;;;44.40;20.92;;;;;;;3.68;73.10;98674.03;4842405;29;20062;-72
2020/12/16 10:38:09;;;;;;;38.63;19.33;;;;;;;3.79;74.09;98669.31;4843154;29;20383;-71
2020/12/16 10:40:34;;;;;;;41.53;19.77;;;;;;;3.81;73.25;98657.13;4842571;29;20117;-72
2020/12/16 10:43:02;;;;;;;43.55;19.23;;;;;;;3.84;74.47;98662.22;4842367;29;20475;-72
2020/12/16 10:45:28;;;;;;;37.25;20.27;;;;;;;3.97;72.69;98657.44;4842376;29;20050;-76
2020/12/16 10:47:58;;;;;;;38.03;20.58;;;;;;;3.84;73.62;98659.63;4843210;29;20060;-72
2020/12/16 10:50:32;;;;;;;39.78;20.88;;;;;;;3.61;74.15;98660.41;4843055;29;20046;-72
2020/12/16 10:53:01;;;;;;;39.75;20.52;;;;;;;3.44;74.77;98662.72;4843148;29;20046;-75
2020/12/16 10:55:27;;;;;;;40.95;21.77;;;;;;;3.39;73.85;98662.88;4842760;29;20065;-77
2020/12/16 10:57:52;;;;;;;37.25;19.42;;;;;;;3.44;74.04;98667.91;4826321;29;20054;-77
2020/12/16 11:00:18;;;;;;;38.08;20.40;;;;;;;3.57;73.48;98664.84;4826809;29;20058;-75
2020/12/16 11:02:44;;;;;;;40.58;21.52;;;;;;;3.22;74.62;98668.63;4842656;29;20508;-78
2020/12/16 11:05:10;;;;;;;39.67;21.23;;;;;;;3.28;74.91;98662.41;4841076;29;20050;-80
2020/12/16 11:07:36;;;;;;;42.00;21.10;;;;;;;3.10;75.50;98666.41;4841777;29;20471;-79
2020/12/16 11:10:02;;;;;;;41.72;21.83;;;;;;;3.28;75.12;98667.59;4841774;29;20057;-78
2020/12/16 11:12:28;;;;;;;46.55;23.30;;;;;;;3.03;75.64;98665.78;4840423;29;20073;-78
2020/12/16 11:14:53;;;;;;;48.40;24.08;;;;;;;3.07;75.82;98674.28;4826087;29;20129;-79
2020/12/16 11:17:19;;;;;;;47.72;23.58;;;;;;;3.03;76.64;98663.19;4842188;29;20407;-79
2020/12/16 11:19:45;;;;;;;41.38;21.83;;;;;;;3.23;75.44;98671.16;4841237;29;20046;-82
2020/12/16 11:22:11;;;;;;;42.38;21.55;;;;;;;3.20;75.66;98666.06;4842045;29;20089;-79
2020/12/16 11:24:37;;;;;;;42.13;20.63;;;;;;;3.38;74.73;98674.13;4841032;29;20141;-80
2020/12/16 11:27:03;;;;;;;43.00;22.90;;;;;;;3.21;75.04;98669.50;4842321;29;20054;-79
2020/12/16 11:29:28;;;;;;;37.92;21.20;;;;;;;3.12;75.76;98662.91;4841869;29;20403;-80